Time;durP1;ratioP1;P1;durP2;ratioP2;P2;SDS_P1;SDS_P2;PMS_P1;PMS_P2;Temp;Humidity;BMP_temperature;BMP_pressure;BME280_temperature;BME280_humidity;BME280_pressure;Samples;Min_cycle;Max_cycle;Signal;HPM_P1;HPM_P2
2022/07/25 00:02:22;;;;;;;1.50;1.00;;;24.20;87.10;;;;;;6097908;23;20801;-75
2022/07/25 00:04:49;;;;;;;1.43;0.90;;;24.10;87.90;;;;;;6108774;23;20430;-76
2022/07/25 00:07:16;;;;;;;1.47;0.90;;;24.10;88.00;;;;;;6102085;23;20453;-76
2022/07/25 00:09:44;;;;;;;1.60;1.30;;;24.00;88.10;;;;;;6114194;23;20753;-76
2022/07/25 00:12:11;;;;;;;1.47;0.90;;;24.00;87.70;;;;;;6102593;23;20470;-76
2022/07/25 00:14:38;;;;;;;1.50;0.90;;;24.00;87.40;;;;;;6095075;23;20423;-77
2022/07/25 00:17:08;;;;;;;1.50;0.90;;;24.00;86.90;;;;;;6096869;23;20449;-76
2022/07/25 00:19:35;;;;;;;1.50;0.83;;;24.00;86.90;;;;;;6103724;23;20445;-75
2022/07/25 00:22:02;;;;;;;1.43;0.80;;;24.10;86.50;;;;;;6094058;23;20442;-77
2022/07/25 00:24:29;;;;;;;1.43;0.90;;;24.10;86.90;;;;;;6096765;23;20461;-77
2022/07/25 00:26:56;;;;;;;1.47;0.87;;;24.10;86.70;;;;;;6095016;23;20501;-77
2022/07/25 00:29:23;;;;;;;1.40;0.90;;;24.10;86.50;;;;;;6096741;23;20539;-75
2022/07/25 00:31:50;;;;;;;1.47;0.90;;;24.10;86.40;;;;;;6091416;23;20500;-76
2022/07/25 00:34:19;;;;;;;1.50;0.90;;;24.10;86.40;;;;;;6104542;23;20458;-78
2022/07/25 00:36:46;;;;;;;1.50;1.10;;;24.10;86.40;;;;;;6095087;23;20427;-77
2022/07/25 00:39:13;;;;;;;1.47;0.90;;;24.10;86.60;;;;;;6096589;23;20422;-77
2022/07/25 00:41:40;;;;;;;1.47;0.90;;;24.10;86.70;;;;;;6092714;23;20523;-76
2022/07/25 00:44:07;;;;;;;1.50;0.90;;;24.10;86.30;;;;;;6095733;23;20537;-76
2022/07/25 00:46:38;;;;;;;1.50;0.90;;;24.10;86.20;;;;;;6090564;23;20438;-77
2022/07/25 00:49:05;;;;;;;1.43;0.90;;;24.10;86.60;;;;;;6109892;23;20479;-76
2022/07/25 00:51:34;;;;;;;1.50;0.90;;;24.10;86.60;;;;;;6087923;23;20449;-77
2022/07/25 00:54:01;;;;;;;1.43;0.90;;;24.10;86.50;;;;;;6109993;23;20449;-77
2022/07/25 00:56:29;;;;;;;1.47;0.90;;;24.00;86.60;;;;;;6095205;23;20493;-77
2022/07/25 00:58:56;;;;;;;1.50;0.90;;;24.00;86.40;;;;;;6098532;23;20450;-77
2022/07/25 01:01:23;;;;;;;1.47;0.83;;;24.00;86.20;;;;;;6094527;23;20988;-77
2022/07/25 01:03:51;;;;;;;1.43;0.87;;;24.00;86.50;;;;;;6111502;23;20475;-77
2022/07/25 01:06:18;;;;;;;1.47;0.90;;;23.90;86.40;;;;;;6087339;23;20460;-76
2022/07/25 01:08:47;;;;;;;1.43;0.90;;;23.90;86.30;;;;;;6112226;23;20498;-75
2022/07/25 01:11:16;;;;;;;1.73;1.63;;;23.90;86.50;;;;;;6084589;23;20450;-75
2022/07/25 01:13:45;;;;;;;1.50;0.90;;;23.80;86.60;;;;;;6112524;23;21261;-76
2022/07/25 01:16:12;;;;;;;1.47;0.90;;;23.80;86.60;;;;;;6095699;23;20474;-77
2022/07/25 01:18:39;;;;;;;1.47;0.90;;;23.70;86.90;;;;;;6095796;23;20423;-76
2022/07/25 01:21:08;;;;;;;1.50;0.90;;;23.70;87.00;;;;;;6091457;23;20443;-75
2022/07/25 01:23:35;;;;;;;1.47;0.90;;;23.60;86.60;;;;;;6112886;23;20447;-76
2022/07/25 01:26:02;;;;;;;1.43;0.90;;;23.60;87.30;;;;;;6083439;23;20435;-77
2022/07/25 01:28:29;;;;;;;1.50;0.90;;;23.60;87.00;;;;;;6115449;23;20432;-77
2022/07/25 01:30:57;;;;;;;1.50;0.90;;;23.50;87.20;;;;;;6089387;23;20984;-75
2022/07/25 01:33:24;;;;;;;1.60;1.30;;;23.50;87.40;;;;;;6115238;23;20534;-77
2022/07/25 01:35:51;;;;;;;1.80;1.57;;;23.50;87.00;;;;;;6080608;23;20921;-77
2022/07/25 01:38:20;;;;;;;1.43;0.90;;;23.40;87.30;;;;;;6116894;23;20434;-77
2022/07/25 01:40:47;;;;;;;1.43;0.90;;;23.40;87.00;;;;;;6080357;23;20442;-76
2022/07/25 01:43:14;;;;;;;1.47;0.90;;;23.30;87.90;;;;;;6102340;23;20522;-76
2022/07/25 01:45:41;;;;;;;1.50;0.90;;;23.30;88.20;;;;;;6097562;23;20465;-77
2022/07/25 01:48:08;;;;;;;1.43;0.90;;;23.20;88.80;;;;;;6104429;23;20450;-75
2022/07/25 01:50:36;;;;;;;1.47;0.90;;;23.10;88.80;;;;;;6097369;23;20478;-74
2022/07/25 01:53:03;;;;;;;1.87;1.77;;;23.10;89.00;;;;;;6104633;23;20457;-76
2022/07/25 01:55:32;;;;;;;1.43;0.90;;;23.10;88.90;;;;;;6108706;23;21109;-76
2022/07/25 01:58:00;;;;;;;1.47;0.90;;;23.00;89.00;;;;;;6104347;23;20457;-75
2022/07/25 02:00:27;;;;;;;1.50;1.00;;;23.00;89.20;;;;;;6095990;23;20429;-78
2022/07/25 02:03:28;;;;;;;1.50;0.90;;;23.00;89.80;;;;;;6100285;23;20450;-77
2022/07/25 02:05:41;;;;;;;1.43;0.90;;;22.90;89.60;;;;;;6093360;23;20447;-77
2022/07/25 02:08:08;;;;;;;1.47;0.90;;;22.90;89.70;;;;;;6103179;23;20450;-76
2022/07/25 02:10:37;;;;;;;1.50;0.90;;;22.90;89.50;;;;;;6093650;23;20505;-75
2022/07/25 02:13:04;;;;;;;1.50;0.90;;;22.80;90.00;;;;;;6091550;23;20445;-76
2022/07/25 02:15:31;;;;;;;1.50;0.90;;;22.80;89.80;;;;;;6095142;23;20446;-77
2022/07/25 02:17:58;;;;;;;1.50;1.20;;;22.80;89.70;;;;;;6103360;23;20450;-77
2022/07/25 02:20:25;;;;;;;1.43;0.80;;;22.80;89.60;;;;;;6094611;23;20933;-77
2022/07/25 02:22:52;;;;;;;1.43;0.90;;;22.70;89.40;;;;;;6100244;23;20505;-77
2022/07/25 02:25:19;;;;;;;1.50;0.90;;;22.70;90.00;;;;;;6094442;23;20437;-77
2022/07/25 02:27:48;;;;;;;1.43;0.90;;;22.70;90.00;;;;;;6101225;23;20449;-77
2022/07/25 02:30:14;;;;;;;1.47;0.90;;;22.70;90.00;;;;;;6095791;23;20441;-76
2022/07/25 02:32:42;;;;;;;1.50;1.00;;;22.60;90.30;;;;;;6100351;23;20518;-77
2022/07/25 02:35:10;;;;;;;1.43;0.90;;;22.60;90.30;;;;;;6093474;23;20426;-77
2022/07/25 02:37:37;;;;;;;1.50;0.90;;;22.60;90.30;;;;;;6094253;23;20450;-78
2022/07/25 02:40:05;;;;;;;1.50;0.90;;;22.60;90.70;;;;;;6094384;23;20426;-77
2022/07/25 02:42:33;;;;;;;1.50;1.00;;;22.60;90.50;;;;;;6097696;23;20446;-76
2022/07/25 02:45:02;;;;;;;3.30;3.10;;;22.50;90.50;;;;;;6096965;23;20793;-77
2022/07/25 02:47:28;;;;;;;1.50;0.90;;;22.50;90.90;;;;;;6098990;23;20993;-77
2022/07/25 02:49:55;;;;;;;1.50;0.90;;;22.50;91.00;;;;;;6097788;23;20433;-77
2022/07/25 02:52:24;;;;;;;1.50;1.10;;;22.50;91.00;;;;;;6094856;23;20477;-76
2022/07/25 02:54:51;;;;;;;1.50;0.90;;;22.40;91.40;;;;;;6106288;23;20426;-78
2022/07/25 02:57:18;;;;;;;1.43;0.90;;;22.40;91.20;;;;;;6093687;23;20422;-77
2022/07/25 02:59:45;;;;;;;1.50;0.90;;;22.40;91.70;;;;;;6105327;23;20419;-77
2022/07/25 03:02:13;;;;;;;1.50;0.90;;;22.40;91.90;;;;;;6092278;23;20522;-77
2022/07/25 03:04:40;;;;;;;1.40;0.90;;;22.40;91.50;;;;;;6102720;23;20442;-77
2022/07/25 03:07:07;;;;;;;1.47;0.90;;;22.30;91.50;;;;;;6093677;23;20458;-75
2022/07/25 03:09:34;;;;;;;1.40;0.90;;;22.30;91.50;;;;;;6094670;23;20430;-76
2022/07/25 03:12:01;;;;;;;1.43;0.90;;;22.30;91.80;;;;;;6093124;23;20457;-78
2022/07/25 03:14:29;;;;;;;1.43;0.90;;;22.30;91.50;;;;;;6103231;23;20497;-77
2022/07/25 03:16:55;;;;;;;1.47;0.90;;;22.30;91.60;;;;;;6092811;23;20817;-77
2022/07/25 03:19:24;;;;;;;1.50;0.90;;;22.20;91.70;;;;;;6105984;23;20422;-77
2022/07/25 03:21:51;;;;;;;1.40;0.90;;;22.20;91.40;;;;;;6089653;23;20979;-75
2022/07/25 03:24:18;;;;;;;1.47;0.90;;;22.20;91.70;;;;;;6104180;23;20501;-77
2022/07/25 03:26:45;;;;;;;1.50;0.90;;;22.20;91.40;;;;;;6093587;23;20426;-77
2022/07/25 03:29:12;;;;;;;1.43;0.90;;;22.10;91.50;;;;;;6094853;23;20453;-77
2022/07/25 03:31:39;;;;;;;1.47;0.90;;;22.10;91.50;;;;;;6089022;23;20457;-77
2022/07/25 03:34:07;;;;;;;1.40;0.90;;;22.10;91.90;;;;;;6104584;23;20475;-76
2022/07/25 03:36:35;;;;;;;1.47;0.90;;;22.00;92.00;;;;;;6092865;23;20422;-77
2022/07/25 03:39:03;;;;;;;1.47;0.90;;;22.00;91.60;;;;;;6094951;23;20422;-77
2022/07/25 03:41:30;;;;;;;1.47;0.90;;;22.00;91.50;;;;;;6087301;23;20517;-76
2022/07/25 03:43:57;;;;;;;1.60;1.00;;;22.00;92.90;;;;;;6107486;23;20820;-75
2022/07/25 03:46:24;;;;;;;1.50;0.90;;;22.00;93.30;;;;;;6095528;23;20430;-75
2022/07/25 03:48:51;;;;;;;1.50;0.90;;;21.90;93.10;;;;;;6105083;23;20450;-77
2022/07/25 03:51:20;;;;;;;1.50;0.90;;;21.90;93.20;;;;;;6093858;23;20614;-77
2022/07/25 03:54:05;;;;;;;1.50;0.90;;;21.90;92.50;;;;;;6112061;23;20422;-76
2022/07/25 03:56:36;;;;;;;1.50;0.90;;;21.80;91.90;;;;;;6095518;23;20483;-75
2022/07/25 03:59:04;;;;;;;1.50;1.00;;;21.80;92.00;;;;;;6095339;23;20703;-76
2022/07/25 04:01:32;;;;;;;1.47;0.90;;;21.80;91.60;;;;;;6083564;23;20505;-77
2022/07/25 04:03:59;;;;;;;1.50;1.00;;;21.80;92.20;;;;;;6111067;23;20526;-76
2022/07/25 04:06:27;;;;;;;1.50;0.90;;;21.80;92.00;;;;;;6092449;23;20453;-77
2022/07/25 04:08:57;;;;;;;1.50;1.13;;;21.80;92.00;;;;;;6110858;23;20485;-77
2022/07/25 04:11:24;;;;;;;1.47;0.90;;;21.80;92.10;;;;;;6092020;23;20795;-77
2022/07/25 04:13:52;;;;;;;1.47;0.90;;;21.90;91.80;;;;;;6094157;23;20418;-76
2022/07/25 04:16:19;;;;;;;1.50;0.90;;;21.90;91.80;;;;;;6096359;23;21189;-76
2022/07/25 04:18:47;;;;;;;1.43;0.90;;;21.90;91.70;;;;;;6096849;23;20517;-77
2022/07/25 04:21:14;;;;;;;1.50;0.90;;;21.90;91.80;;;;;;6085861;23;20457;-77
2022/07/25 04:23:42;;;;;;;1.47;0.90;;;22.00;91.70;;;;;;6113962;23;20473;-74
2022/07/25 04:26:11;;;;;;;1.43;0.90;;;22.00;91.80;;;;;;6107002;23;20458;-77
2022/07/25 04:28:38;;;;;;;1.47;0.90;;;22.00;91.20;;;;;;6097618;23;20449;-76
2022/07/25 04:31:05;;;;;;;1.40;0.90;;;22.10;92.00;;;;;;6085196;23;22233;-76
2022/07/25 04:33:32;;;;;;;1.50;0.90;;;22.10;92.00;;;;;;6123963;23;20518;-76
2022/07/25 04:36:00;;;;;;;1.43;0.90;;;22.20;92.20;;;;;;6083953;23;20968;-78
2022/07/25 04:38:27;;;;;;;1.43;0.90;;;22.20;91.50;;;;;;6117091;23;20426;-77
2022/07/25 04:40:55;;;;;;;1.43;0.90;;;22.20;91.40;;;;;;6094724;23;20528;-76
2022/07/25 04:43:24;;;;;;;1.43;0.90;;;22.30;91.30;;;;;;6097526;23;20450;-76
2022/07/25 04:45:51;;;;;;;1.50;0.90;;;22.30;91.20;;;;;;6098472;23;20426;-75
2022/07/25 04:48:19;;;;;;;1.43;0.90;;;22.40;91.10;;;;;;6097887;23;20479;-77
2022/07/25 04:50:46;;;;;;;1.43;0.90;;;22.50;91.00;;;;;;6098102;23;20442;-77
2022/07/25 04:53:13;;;;;;;1.47;0.90;;;22.50;91.10;;;;;;6096873;23;20419;-75
2022/07/25 04:55:41;;;;;;;1.47;0.90;;;22.60;91.30;;;;;;6098817;23;21179;-74
2022/07/25 04:58:08;;;;;;;1.47;0.90;;;22.70;90.60;;;;;;6107248;23;20478;-75
2022/07/25 05:00:37;;;;;;;1.43;0.90;;;22.80;90.70;;;;;;6093600;23;20427;-76
2022/07/25 05:03:04;;;;;;;1.50;0.90;;;22.90;90.60;;;;;;6097868;23;20419;-75
2022/07/25 05:05:33;;;;;;;1.47;0.90;;;23.00;90.60;;;;;;6098589;23;20487;-76
2022/07/25 05:08:05;;;;;;;1.50;0.90;;;23.20;90.20;;;;;;6108851;23;20873;-76
2022/07/25 05:10:32;;;;;;;1.50;0.90;;;23.30;89.70;;;;;;6111209;23;20446;-76
2022/07/25 05:13:00;;;;;;;1.43;0.90;;;23.40;88.90;;;;;;6097597;23;20937;-76
2022/07/25 05:15:27;;;;;;;1.43;0.90;;;23.50;88.90;;;;;;6098264;23;20457;-75
2022/07/25 05:17:56;;;;;;;1.47;0.90;;;23.60;88.70;;;;;;6098041;23;20426;-75
2022/07/25 05:20:23;;;;;;;1.50;0.90;;;23.70;88.70;;;;;;6097707;23;20446;-76
2022/07/25 05:22:50;;;;;;;1.40;0.90;;;23.70;88.90;;;;;;6106167;23;20485;-75
2022/07/25 05:25:18;;;;;;;1.47;0.90;;;23.70;88.00;;;;;;6097972;23;20482;-76
2022/07/25 05:27:46;;;;;;;1.50;0.90;;;23.70;87.90;;;;;;6105126;23;20488;-76
2022/07/25 05:30:15;;;;;;;1.43;0.90;;;23.70;87.70;;;;;;6097477;23;20427;-77
2022/07/25 05:32:42;;;;;;;1.40;0.87;;;23.70;87.50;;;;;;6105216;23;20473;-75
2022/07/25 05:35:14;;;;;;;1.43;0.90;;;23.70;87.60;;;;;;6097846;23;20465;-75
2022/07/25 05:37:42;;;;;;;1.47;0.90;;;23.70;87.50;;;;;;6105078;23;20446;-76
2022/07/25 05:40:10;;;;;;;1.47;0.90;;;23.70;87.60;;;;;;6100410;23;20510;-76
2022/07/25 05:42:41;;;;;;;1.50;1.00;;;23.70;87.50;;;;;;6107272;23;20476;-75
2022/07/25 05:45:10;;;;;;;1.50;0.90;;;23.70;87.60;;;;;;6110778;23;20782;-77
2022/07/25 05:47:37;;;;;;;1.43;0.90;;;23.80;87.40;;;;;;6105072;23;20449;-77
2022/07/25 05:50:05;;;;;;;1.40;0.90;;;23.80;87.20;;;;;;6101879;23;20483;-76
2022/07/25 05:52:34;;;;;;;1.50;0.90;;;23.90;86.90;;;;;;6105820;23;20533;-76
2022/07/25 05:55:01;;;;;;;1.50;0.90;;;24.00;87.00;;;;;;6100443;23;20419;-76
2022/07/25 05:57:28;;;;;;;1.47;0.90;;;24.10;86.90;;;;;;6102754;23;20450;-77
2022/07/25 05:59:58;;;;;;;1.47;0.90;;;24.30;86.40;;;;;;6112074;23;20442;-77
2022/07/25 06:02:26;;;;;;;1.50;0.90;;;24.40;87.10;;;;;;6101170;23;20492;-77
2022/07/25 06:04:59;;;;;;;1.40;0.87;;;24.70;87.00;;;;;;6111833;23;20442;-76
2022/07/25 06:07:27;;;;;;;1.47;0.90;;;24.90;86.30;;;;;;6103416;23;20445;-78
2022/07/25 06:09:58;;;;;;;1.50;0.90;;;25.10;84.50;;;;;;6104069;23;20426;-77
2022/07/25 06:12:25;;;;;;;1.50;0.90;;;25.30;84.00;;;;;;6107951;23;20514;-77
2022/07/25 06:14:53;;;;;;;1.50;0.90;;;25.50;83.90;;;;;;6107865;23;21141;-79
2022/07/25 06:17:20;;;;;;;1.47;0.90;;;25.60;83.10;;;;;;6101470;23;20453;-76
2022/07/25 06:19:48;;;;;;;1.47;0.90;;;25.90;82.40;;;;;;6103943;23;20477;-75
2022/07/25 06:22:15;;;;;;;1.50;0.80;;;26.00;81.50;;;;;;6098490;23;20477;-76
2022/07/25 06:24:45;;;;;;;1.50;0.90;;;26.10;81.40;;;;;;6104190;23;20446;-77
2022/07/25 06:27:14;;;;;;;1.47;0.87;;;26.20;80.50;;;;;;6099575;23;20449;-76
2022/07/25 06:29:42;;;;;;;1.47;0.90;;;26.30;80.80;;;;;;6115478;23;20429;-76
2022/07/25 06:32:09;;;;;;;1.50;0.90;;;26.40;79.00;;;;;;6096305;23;20445;-76
2022/07/25 06:34:36;;;;;;;1.50;0.90;;;26.40;78.90;;;;;;6106743;23;20997;-76
2022/07/25 06:37:03;;;;;;;1.50;1.00;;;26.60;77.50;;;;;;6102823;23;20788;-75
2022/07/25 06:39:31;;;;;;;1.50;0.90;;;26.60;78.20;;;;;;6105522;23;20442;-77
2022/07/25 06:42:00;;;;;;;1.50;1.00;;;26.90;78.00;;;;;;6095355;23;20485;-76
2022/07/25 06:44:31;;;;;;;1.50;0.90;;;27.10;77.90;;;;;;6107071;23;20792;-76
2022/07/25 06:46:59;;;;;;;1.50;0.87;;;27.30;76.90;;;;;;6097527;23;20485;-75
2022/07/25 06:49:26;;;;;;;1.50;1.00;;;27.40;77.00;;;;;;6104428;23;21058;-75
2022/07/25 06:51:54;;;;;;;1.47;0.90;;;27.60;77.20;;;;;;6094714;23;20461;-75
2022/07/25 06:54:21;;;;;;;1.50;1.00;;;27.70;76.50;;;;;;6106091;23;20427;-74
2022/07/25 06:56:48;;;;;;;1.50;1.10;;;27.70;76.60;;;;;;6093902;23;20449;-74
2022/07/25 06:59:16;;;;;;;1.50;1.00;;;27.80;77.00;;;;;;6106835;23;20521;-75
2022/07/25 07:01:45;;;;;;;1.50;0.90;;;27.70;75.60;;;;;;6091787;23;20447;-75
2022/07/25 07:04:20;;;;;;;1.50;0.80;;;27.70;75.80;;;;;;6099238;23;20521;-75
2022/07/25 07:06:47;;;;;;;1.50;1.00;;;27.80;75.80;;;;;;6099156;23;20445;-76
2022/07/25 07:09:14;;;;;;;1.50;0.80;;;27.90;75.10;;;;;;6110419;23;20422;-75
2022/07/25 07:11:41;;;;;;;1.47;0.87;;;27.90;75.50;;;;;;6091881;23;20504;-75
2022/07/25 07:14:14;;;;;;;1.50;0.90;;;27.90;76.20;;;;;;6106948;23;20420;-75
2022/07/25 07:16:44;;;;;;;1.50;0.90;;;28.10;74.90;;;;;;6098009;23;20540;-75
2022/07/25 07:19:15;;;;;;;1.47;0.90;;;28.10;74.80;;;;;;6124772;23;20414;-74
2022/07/25 07:21:43;;;;;;;2.13;1.77;;;28.20;75.60;;;;;;6102198;23;20492;-76
2022/07/25 07:24:10;;;;;;;1.43;0.80;;;28.40;75.30;;;;;;6116944;23;20454;-76
2022/07/25 07:26:38;;;;;;;1.50;1.00;;;28.60;74.50;;;;;;6110279;23;20425;-75
2022/07/25 07:29:05;;;;;;;1.47;0.80;;;28.70;73.50;;;;;;6101188;23;20509;-75
2022/07/25 07:31:35;;;;;;;1.43;0.80;;;28.90;73.80;;;;;;6097934;23;20984;-75
2022/07/25 07:34:04;;;;;;;1.60;0.90;;;29.10;74.00;;;;;;6101666;23;20477;-75
2022/07/25 07:36:32;;;;;;;1.50;0.90;;;29.20;72.50;;;;;;6100714;23;20472;-74
2022/07/25 07:39:02;;;;;;;1.43;0.80;;;29.30;71.90;;;;;;6113806;23;20917;-73
2022/07/25 07:41:30;;;;;;;1.40;0.80;;;29.50;72.00;;;;;;6093677;23;21138;-74
2022/07/25 07:43:57;;;;;;;1.70;1.00;;;29.50;71.70;;;;;;6120074;23;20418;-76
2022/07/25 07:46:25;;;;;;;1.40;0.80;;;29.60;72.50;;;;;;6102760;23;20992;-75
2022/07/25 07:48:53;;;;;;;1.50;0.87;;;29.70;72.00;;;;;;6103395;23;20445;-76
2022/07/25 07:51:27;;;;;;;1.47;0.80;;;29.90;72.60;;;;;;6102055;23;20452;-75
2022/07/25 07:56:40;;;;;;;1.50;0.90;;;30.20;71.60;;;;;;6107127;23;20514;-75
2022/07/25 07:59:11;;;;;;;1.47;0.80;;;30.40;71.90;;;;;;6120370;23;20442;-76
2022/07/25 08:01:39;;;;;;;1.40;0.80;;;30.50;71.00;;;;;;6113676;23;20442;-75
2022/07/25 08:04:06;;;;;;;1.50;1.00;;;30.60;71.50;;;;;;6105206;23;20434;-76
2022/07/25 08:06:36;;;;;;;1.40;0.80;;;30.70;70.50;;;;;;6107793;23;20499;-77
2022/07/25 08:09:05;;;;;;;1.43;0.80;;;30.70;70.90;;;;;;6104175;23;20426;-76
2022/07/25 08:11:33;;;;;;;1.40;0.80;;;30.80;71.00;;;;;;6103695;23;20466;-76
2022/07/25 08:14:01;;;;;;;1.47;0.80;;;30.80;70.40;;;;;;6105302;23;20426;-77
2022/07/25 08:16:31;;;;;;;1.43;0.80;;;30.80;71.20;;;;;;6105806;23;20418;-75
2022/07/25 08:18:59;;;;;;;1.43;0.80;;;30.80;70.10;;;;;;6105885;23;20430;-77
2022/07/25 08:21:27;;;;;;;1.43;0.80;;;30.80;72.00;;;;;;6104712;23;20933;-76
2022/07/25 08:23:54;;;;;;;1.47;0.80;;;30.70;69.90;;;;;;6116170;23;20473;-76
2022/07/25 08:26:26;;;;;;;1.43;0.90;;;30.60;69.80;;;;;;6115368;23;20453;-77
2022/07/25 08:29:04;;;;;;;1.50;0.90;;;30.40;69.50;;;;;;6105270;23;20442;-78
2022/07/25 08:31:31;;;;;;;1.50;0.90;;;30.30;68.60;;;;;;6098224;23;20449;-77
2022/07/25 08:33:59;;;;;;;1.40;0.80;;;30.20;69.10;;;;;;6117183;23;20448;-77
2022/07/25 08:36:27;;;;;;;1.40;0.80;;;30.10;69.20;;;;;;6105506;23;20896;-78
2022/07/25 08:38:54;;;;;;;1.43;0.80;;;30.00;70.60;;;;;;6097472;23;20421;-77
2022/07/25 08:41:23;;;;;;;1.47;0.90;;;30.00;70.30;;;;;;6087268;23;20801;-76
2022/07/25 08:43:54;;;;;;;1.47;0.80;;;30.00;70.40;;;;;;6126833;23;20714;-78
2022/07/25 08:46:27;;;;;;;1.60;1.20;;;29.90;70.70;;;;;;6104573;23;20473;-77
2022/07/25 08:48:55;;;;;;;1.50;0.80;;;29.90;70.70;;;;;;6099462;23;20420;-76
2022/07/25 08:51:23;;;;;;;1.43;0.90;;;29.90;71.30;;;;;;6098764;23;20438;-76
2022/07/25 08:53:51;;;;;;;1.47;0.80;;;29.80;71.00;;;;;;6101085;23;20422;-76
2022/07/25 08:56:18;;;;;;;1.43;0.80;;;29.80;71.20;;;;;;6094422;23;21032;-78
2022/07/25 09:01:42;;;;;;;1.50;1.10;;;29.70;71.90;;;;;;6098406;23;20464;-80
2022/07/25 09:04:34;;;;;;;1.43;0.80;;;29.70;70.60;;;;;;6126311;23;20817;-78
2022/07/25 09:07:06;;;;;;;1.47;0.80;;;29.90;71.20;;;;;;6090697;23;20467;-76
2022/07/25 09:09:37;;;;;;;1.50;0.80;;;30.20;70.30;;;;;;6105598;23;20426;-77
2022/07/25 09:12:06;;;;;;;1.47;0.80;;;30.60;70.40;;;;;;6098959;23;20453;-77
2022/07/25 09:15:10;;;;;;;1.43;0.80;;;31.00;68.90;;;;;;6105538;23;20418;-83
2022/07/25 09:17:38;;;;;;;1.47;0.80;;;31.40;68.30;;;;;;6099983;23;20449;-79
2022/07/25 09:20:09;;;;;;;1.50;0.80;;;31.80;68.20;;;;;;6098678;23;20418;-80
2022/07/25 09:22:44;;;;;;;1.47;0.80;;;32.00;66.20;;;;;;6102413;23;20551;-79
2022/07/25 09:25:22;;;;;;;1.43;0.80;;;32.00;65.80;;;;;;6107756;23;20425;-76
2022/07/25 09:27:50;;;;;;;1.40;0.80;;;32.00;66.50;;;;;;6112422;23;20483;-78
2022/07/25 09:30:27;;;;;;;1.47;0.90;;;32.10;66.50;;;;;;6110980;23;20453;-79
2022/07/25 09:33:04;;;;;;;1.50;0.80;;;32.30;65.70;;;;;;6109181;23;20453;-77
2022/07/25 09:35:33;;;;;;;1.47;0.90;;;32.30;64.60;;;;;;6103165;23;20445;-78
2022/07/25 09:38:10;;;;;;;1.47;0.80;;;32.10;65.70;;;;;;6099615;23;20449;-78
2022/07/25 09:40:38;;;;;;;1.50;0.90;;;31.90;65.70;;;;;;6100259;23;20453;-78
2022/07/25 09:43:06;;;;;;;1.40;0.80;;;31.80;66.50;;;;;;6097702;23;20477;-78
2022/07/25 09:45:35;;;;;;;1.43;0.80;;;31.60;66.20;;;;;;6108220;23;20410;-75
2022/07/25 09:48:04;;;;;;;1.40;0.80;;;31.50;67.40;;;;;;6107779;23;20453;-77
2022/07/25 09:50:33;;;;;;;1.43;0.80;;;31.30;67.90;;;;;;6097732;23;20450;-79
2022/07/25 09:53:02;;;;;;;1.40;0.80;;;31.10;67.90;;;;;;6102175;23;20452;-78
2022/07/25 09:55:30;;;;;;;1.43;0.80;;;31.00;68.40;;;;;;6095849;23;20449;-77
2022/07/25 09:57:57;;;;;;;1.47;0.80;;;30.70;68.60;;;;;;6095242;23;20429;-77
2022/07/25 10:00:27;;;;;;;1.40;0.80;;;30.50;69.20;;;;;;6093396;23;20426;-78
2022/07/25 10:03:12;;;;;;;1.47;0.80;;;30.10;69.60;;;;;;6102357;23;20520;-78
2022/07/25 10:05:55;;;;;;;1.47;0.80;;;29.80;70.60;;;;;;6106244;23;20422;-76
2022/07/25 10:08:27;;;;;;;1.43;0.80;;;29.40;71.60;;;;;;6080382;23;20438;-77
2022/07/25 10:11:03;;;;;;;1.43;0.80;;;29.20;73.40;;;;;;6083017;23;20450;-79
2022/07/25 10:13:33;;;;;;;1.47;0.80;;;29.00;74.10;;;;;;6116371;23;20422;-77
2022/07/25 10:16:00;;;;;;;1.43;0.90;;;28.60;74.20;;;;;;6084591;23;20446;-78
2022/07/25 10:18:32;;;;;;;1.47;0.80;;;28.50;75.30;;;;;;6124745;23;20493;-78
2022/07/25 10:21:12;;;;;;;1.43;0.80;;;28.30;75.70;;;;;;6094837;23;20505;-77
2022/07/25 10:23:40;;;;;;;1.50;0.80;;;28.20;76.50;;;;;;6103669;23;20434;-78
2022/07/25 10:26:14;;;;;;;1.43;0.80;;;28.10;76.30;;;;;;6102929;23;20426;-79
2022/07/25 10:28:44;;;;;;;1.40;0.80;;;28.00;78.10;;;;;;6133210;23;20437;-78
2022/07/25 10:31:23;;;;;;;1.50;1.10;;;28.00;77.30;;;;;;6101836;23;20460;-77
2022/07/25 10:33:55;;;;;;;1.50;0.80;;;28.00;79.00;;;;;;6133849;23;20511;-79
2022/07/25 10:36:24;;;;;;;1.47;0.80;;;28.00;77.00;;;;;;6107593;23;20525;-78
2022/07/25 10:38:56;;;;;;;1.47;0.80;;;28.10;76.60;;;;;;6132268;23;20414;-78
2022/07/25 10:41:46;;;;;;;1.47;0.80;;;28.20;76.20;;;;;;6114088;23;20473;-79
2022/07/25 10:44:16;;;;;;;1.43;0.90;;;28.20;76.00;;;;;;6115684;23;20422;-78
2022/07/25 10:46:49;;;;;;;1.47;0.90;;;28.40;76.20;;;;;;6106614;23;20448;-78
2022/07/25 10:49:24;;;;;;;1.80;1.30;;;28.90;76.20;;;;;;6115576;23;20415;-78
2022/07/25 10:52:02;;;;;;;1.47;0.80;;;29.50;74.00;;;;;;6107223;23;20452;-78
2022/07/25 10:54:38;;;;;;;1.50;0.90;;;29.90;73.20;;;;;;6113824;23;20425;-79
2022/07/25 10:57:21;;;;;;;1.50;1.00;;;30.20;69.90;;;;;;6105580;23;20852;-78
2022/07/25 10:59:50;;;;;;;1.50;0.90;;;30.60;70.20;;;;;;6113770;23;20409;-79
2022/07/25 11:02:18;;;;;;;1.50;0.90;;;30.90;68.10;;;;;;6107188;23;20456;-80
2022/07/25 11:05:00;;;;;;;1.47;0.80;;;31.00;67.30;;;;;;6121868;23;20481;-78
2022/07/25 11:07:34;;;;;;;1.40;0.80;;;30.90;66.30;;;;;;6108785;23;20524;-79
2022/07/25 11:10:04;;;;;;;1.43;0.80;;;30.80;66.00;;;;;;6102854;23;20449;-79
2022/07/25 11:12:32;;;;;;;1.40;0.80;;;30.70;67.10;;;;;;6100212;23;20438;-79
2022/07/25 11:15:03;;;;;;;1.40;0.80;;;30.60;67.90;;;;;;6100078;23;20745;-78
2022/07/25 11:17:31;;;;;;;1.40;0.80;;;30.60;66.80;;;;;;6103947;23;20952;-78
2022/07/25 11:20:02;;;;;;;1.50;0.90;;;30.50;67.40;;;;;;6109894;23;20422;-78
2022/07/25 11:22:33;;;;;;;1.40;0.80;;;30.60;68.10;;;;;;6105326;23;20453;-78
2022/07/25 11:25:01;;;;;;;1.43;0.80;;;30.60;67.70;;;;;;6115610;23;20917;-78
2022/07/25 11:27:31;;;;;;;1.47;0.83;;;30.80;66.00;;;;;;6104024;23;20469;-80
2022/07/25 11:30:07;;;;;;;1.50;0.80;;;30.90;67.80;;;;;;6100969;23;20490;-78
2022/07/25 11:32:40;;;;;;;1.47;0.80;;;31.00;66.00;;;;;;6101613;23;20519;-78
2022/07/25 11:35:10;;;;;;;1.43;0.80;;;31.10;65.20;;;;;;6099056;23;20432;-78
2022/07/25 11:37:40;;;;;;;1.43;0.80;;;31.10;65.30;;;;;;6099892;23;20440;-79
2022/07/25 11:40:09;;;;;;;1.40;0.80;;;31.30;65.00;;;;;;6108387;23;20422;-78
2022/07/25 11:42:41;;;;;;;1.60;1.10;;;31.50;63.80;;;;;;6105873;23;20449;-79
2022/07/25 11:45:18;;;;;;;1.40;0.80;;;31.50;63.80;;;;;;6113608;23;20418;-81
2022/07/25 11:47:49;;;;;;;1.43;0.80;;;31.60;64.00;;;;;;6110005;23;20402;-78
2022/07/25 11:50:28;;;;;;;1.40;0.80;;;31.40;63.20;;;;;;6100967;23;20424;-77
2022/07/25 11:53:00;;;;;;;1.60;1.10;;;31.40;64.00;;;;;;6102574;23;20450;-79
2022/07/25 11:55:30;;;;;;;1.47;0.80;;;31.40;63.10;;;;;;6109562;23;20445;-79
2022/07/25 11:58:09;;;;;;;1.47;0.80;;;31.50;63.80;;;;;;6109004;23;20460;-76
2022/07/25 12:00:40;;;;;;;1.50;0.90;;;31.50;64.50;;;;;;6098219;23;20497;-78
2022/07/25 12:03:08;;;;;;;1.40;0.80;;;31.50;63.60;;;;;;6094630;23;20427;-78
2022/07/25 12:05:37;;;;;;;1.47;0.80;;;31.40;63.80;;;;;;6101554;23;20713;-79
2022/07/25 12:08:10;;;;;;;1.40;0.80;;;31.40;63.90;;;;;;6105859;23;20512;-80
2022/07/25 12:10:39;;;;;;;1.43;0.90;;;31.40;64.50;;;;;;6097811;23;20497;-78
2022/07/25 12:13:09;;;;;;;1.50;0.80;;;31.30;64.20;;;;;;6105244;23;20507;-78
2022/07/25 12:15:40;;;;;;;1.40;0.80;;;31.50;64.70;;;;;;6101870;23;20470;-79
2022/07/25 12:18:11;;;;;;;1.47;0.80;;;31.80;63.80;;;;;;6103148;23;20411;-78
2022/07/25 12:20:42;;;;;;;1.47;0.80;;;31.90;64.70;;;;;;6099815;23;20442;-78
2022/07/25 12:23:12;;;;;;;1.43;0.80;;;31.90;63.60;;;;;;6111161;23;20436;-80
2022/07/25 12:25:41;;;;;;;1.47;0.80;;;31.70;64.60;;;;;;6109897;23;20417;-78
2022/07/25 12:28:09;;;;;;;1.40;0.80;;;31.60;66.00;;;;;;6106873;23;20480;-78
2022/07/25 12:30:37;;;;;;;1.40;0.80;;;31.60;65.50;;;;;;6100345;23;20422;-77
2022/07/25 12:33:05;;;;;;;1.50;0.90;;;31.60;65.90;;;;;;6109544;23;20528;-77
2022/07/25 12:35:36;;;;;;;1.43;0.80;;;31.60;66.00;;;;;;6100079;23;20705;-78
2022/07/25 12:38:06;;;;;;;1.40;0.80;;;31.60;66.20;;;;;;6108016;23;20507;-80
2022/07/25 12:40:33;;;;;;;1.40;0.80;;;31.50;66.80;;;;;;6103055;23;20433;-79
2022/07/25 12:43:01;;;;;;;1.40;0.80;;;31.50;66.30;;;;;;6110536;23;20508;-78
2022/07/25 12:45:30;;;;;;;1.43;0.80;;;31.30;66.50;;;;;;6103186;23;20429;-79
2022/07/25 12:48:06;;;;;;;1.40;0.80;;;31.40;67.00;;;;;;6112739;23;20520;-79
2022/07/25 12:50:34;;;;;;;1.40;0.80;;;31.40;67.50;;;;;;6103989;23;20623;-78
2022/07/25 12:53:03;;;;;;;1.50;0.80;;;31.40;66.80;;;;;;6109681;23;20445;-77
2022/07/25 12:55:32;;;;;;;1.47;0.80;;;31.40;67.50;;;;;;6100671;23;20426;-76
2022/07/25 12:58:00;;;;;;;1.40;0.80;;;31.60;67.40;;;;;;6108683;23;20456;-80
2022/07/25 13:00:29;;;;;;;1.50;0.90;;;31.90;67.20;;;;;;6111985;23;20429;-79
2022/07/25 13:02:56;;;;;;;1.70;1.20;;;32.30;66.50;;;;;;6108013;23;20217;-77
2022/07/25 13:05:26;;;;;;;1.77;1.17;;;32.70;65.90;;;;;;6107717;23;20230;-78